Time;durP1;ratioP1;P1;durP2;ratioP2;P2;SDS_P1;SDS_P2;PMS_P1;PMS_P2;Temp;Humidity;BMP_temperature;BMP_pressure;BME280_temperature;BME280_humidity;BME280_pressure;Samples;Min_cycle;Max_cycle;Signal;HPM_P1;HPM_P2
2023/04/23 00:01:26;;;;;;;76.93;14.10;;;12.30;99.90;;;;;;4998403;28;20169;-81
2023/04/23 00:03:56;;;;;;;79.82;15.05;;;12.30;99.90;;;;;;4996810;28;20461;-82
2023/04/23 00:06:22;;;;;;;77.32;14.82;;;12.20;99.90;;;;;;4998165;28;20634;-82
2023/04/23 00:08:51;;;;;;;77.70;15.77;;;12.20;99.90;;;;;;4997130;28;20213;-81
2023/04/23 00:11:17;;;;;;;76.95;14.13;;;12.20;99.90;;;;;;4997071;28;20418;-82
2023/04/23 00:13:43;;;;;;;79.27;15.43;;;12.40;99.90;;;;;;4998048;28;20190;-81
2023/04/23 00:16:09;;;;;;;77.15;15.27;;;12.30;99.90;;;;;;4998117;28;20224;-81
2023/04/23 00:18:36;;;;;;;79.70;17.90;;;12.30;99.90;;;;;;4998455;28;20167;-81
2023/04/23 00:21:02;;;;;;;77.70;15.93;;;12.20;99.90;;;;;;4998168;28;20169;-82
2023/04/23 00:23:28;;;;;;;78.80;17.77;;;12.20;99.90;;;;;;4996514;28;20472;-81
2023/04/23 00:25:53;;;;;;;82.35;17.63;;;12.10;99.90;;;;;;4997402;28;20265;-82
2023/04/23 00:28:19;;;;;;;80.37;19.27;;;12.00;99.90;;;;;;4998130;28;20202;-81
2023/04/23 00:30:45;;;;;;;79.90;18.43;;;12.00;99.90;;;;;;4997999;28;20217;-82
2023/04/23 00:33:11;;;;;;;80.37;19.23;;;12.00;99.90;;;;;;4997817;28;20417;-81
2023/04/23 00:35:36;;;;;;;79.10;17.07;;;12.00;99.90;;;;;;4997928;28;20186;-81
2023/04/23 00:38:02;;;;;;;80.57;16.50;;;12.10;99.90;;;;;;4997678;28;20192;-81
2023/04/23 00:40:30;;;;;;;80.80;17.57;;;12.10;99.90;;;;;;4997741;28;20163;-81
2023/04/23 00:42:57;;;;;;;79.93;17.08;;;12.00;99.90;;;;;;4997665;28;20186;-81
2023/04/23 00:45:23;;;;;;;80.55;16.73;;;12.00;99.90;;;;;;4996139;28;20558;-81
2023/04/23 00:47:49;;;;;;;79.65;16.83;;;12.00;99.90;;;;;;4996332;28;20588;-81
2023/04/23 00:50:14;;;;;;;79.83;17.37;;;11.90;99.90;;;;;;4997827;28;20245;-81
2023/04/23 00:52:40;;;;;;;79.77;19.27;;;11.80;99.90;;;;;;4997857;28;20248;-81
2023/04/23 00:55:07;;;;;;;82.43;21.47;;;11.70;99.90;;;;;;4997575;28;20201;-81
2023/04/23 00:57:35;;;;;;;83.97;23.40;;;11.60;99.90;;;;;;4996395;28;20646;-82
2023/04/23 01:00:02;;;;;;;79.65;18.35;;;11.60;99.90;;;;;;4995956;28;20710;-81
2023/04/23 01:02:29;;;;;;;78.10;17.95;;;11.70;99.90;;;;;;4997581;28;20554;-81
2023/04/23 01:04:55;;;;;;;80.70;19.60;;;11.80;99.90;;;;;;4996326;28;20256;-81
2023/04/23 01:07:22;;;;;;;79.97;20.73;;;11.70;99.90;;;;;;4997505;28;20162;-81
2023/04/23 01:09:50;;;;;;;83.35;18.40;;;11.60;99.90;;;;;;4997561;28;20558;-81
2023/04/23 01:12:16;;;;;;;81.05;18.63;;;11.80;99.90;;;;;;4996482;28;20167;-81
2023/04/23 01:14:43;;;;;;;82.88;20.42;;;11.70;99.90;;;;;;4996911;28;20193;-82
2023/04/23 01:17:10;;;;;;;86.15;21.40;;;11.80;99.90;;;;;;4997302;28;20610;-81
2023/04/23 01:19:36;;;;;;;83.55;20.40;;;11.80;99.90;;;;;;4997402;28;20158;-81
2023/04/23 01:22:03;;;;;;;84.68;19.27;;;11.80;99.90;;;;;;4997155;28;20170;-81
2023/04/23 01:24:30;;;;;;;86.00;20.83;;;11.80;99.90;;;;;;4995412;28;20186;-81
2023/04/23 01:26:57;;;;;;;84.47;20.50;;;11.70;99.90;;;;;;4997342;28;20159;-81
2023/04/23 01:29:24;;;;;;;85.40;22.27;;;11.70;99.90;;;;;;4996719;28;20163;-81
2023/04/23 01:31:50;;;;;;;86.60;22.70;;;11.70;99.90;;;;;;4996618;28;20566;-81
2023/04/23 01:34:20;;;;;;;83.07;21.97;;;11.60;99.90;;;;;;4996660;28;20233;-81
2023/04/23 01:36:47;;;;;;;84.78;22.77;;;11.70;99.90;;;;;;4996524;28;20461;-81
2023/04/23 01:39:13;;;;;;;84.57;21.83;;;11.60;99.90;;;;;;4996806;28;20638;-81
2023/04/23 01:41:40;;;;;;;85.63;24.20;;;11.60;99.90;;;;;;4995053;28;20179;-81
2023/04/23 01:44:05;;;;;;;86.47;22.73;;;11.60;99.90;;;;;;4996037;28;20622;-81
2023/04/23 01:46:31;;;;;;;89.47;27.53;;;11.50;99.90;;;;;;4996070;28;20162;-81
2023/04/23 01:48:57;;;;;;;93.07;25.17;;;11.50;99.90;;;;;;4996679;28;20871;-81
2023/04/23 01:51:24;;;;;;;86.85;24.38;;;11.50;99.90;;;;;;4996381;28;20402;-81
2023/04/23 01:53:50;;;;;;;88.20;25.13;;;11.60;99.90;;;;;;4996016;28;20186;-81
2023/04/23 01:56:19;;;;;;;87.20;25.20;;;11.50;99.90;;;;;;4996106;28;20180;-81
2023/04/23 01:58:45;;;;;;;93.25;28.48;;;11.50;99.90;;;;;;4994784;28;20203;-81
2023/04/23 02:01:11;;;;;;;87.07;23.03;;;11.50;99.90;;;;;;4995793;28;20166;-82
2023/04/23 02:03:36;;;;;;;85.43;23.23;;;11.50;99.90;;;;;;4994351;28;20614;-81
2023/04/23 02:06:03;;;;;;;88.37;26.77;;;11.50;99.90;;;;;;4996565;28;20174;-81
2023/04/23 02:08:32;;;;;;;86.00;21.70;;;11.50;99.90;;;;;;5080871;22;20720;-83
2023/04/23 02:10:58;;;;;;;85.03;23.50;;;11.50;99.90;;;;;;5020833;28;20631;-84
2023/04/23 02:13:24;;;;;;;87.00;22.83;;;11.50;99.90;;;;;;5021055;28;20208;-84
2023/04/23 02:15:50;;;;;;;87.30;23.93;;;11.50;99.90;;;;;;5019987;28;20227;-84
2023/04/23 02:18:15;;;;;;;86.17;22.90;;;11.50;99.90;;;;;;5019615;28;20174;-84
2023/04/23 02:20:44;;;;;;;87.47;22.37;;;11.50;99.90;;;;;;5020489;28;20174;-84
2023/04/23 02:23:13;;;;;;;86.20;22.23;;;11.40;99.90;;;;;;5019914;28;20265;-86
2023/04/23 02:25:39;;;;;;;88.38;24.45;;;11.40;99.90;;;;;;5019130;28;20158;-86
2023/04/23 02:28:06;;;;;;;87.70;23.30;;;11.30;99.90;;;;;;5017765;28;20173;-86
2023/04/23 02:30:35;;;;;;;87.15;23.45;;;11.30;99.90;;;;;;5019863;28;20537;-86
2023/04/23 02:33:01;;;;;;;85.57;22.45;;;11.30;99.90;;;;;;5017629;28;20204;-86
2023/04/23 02:35:30;;;;;;;85.80;22.37;;;11.30;99.90;;;;;;5019382;28;20638;-86
2023/04/23 02:37:55;;;;;;;86.07;23.17;;;11.20;99.90;;;;;;5017867;28;20401;-86
2023/04/23 02:40:21;;;;;;;84.17;22.10;;;11.30;99.90;;;;;;5018182;28;20197;-86
2023/04/23 02:42:48;;;;;;;87.47;23.30;;;11.10;99.90;;;;;;5018232;28;20200;-86
2023/04/23 02:45:13;;;;;;;84.75;22.88;;;11.10;99.90;;;;;;5017064;28;20328;-86
2023/04/23 02:47:42;;;;;;;90.40;23.87;;;11.20;99.90;;;;;;5017065;28;20630;-86
2023/04/23 02:50:08;;;;;;;86.22;23.33;;;11.10;99.90;;;;;;5017013;28;20158;-86
2023/04/23 02:52:34;;;;;;;89.33;24.90;;;11.10;99.90;;;;;;5015708;28;20182;-86
2023/04/23 02:55:03;;;;;;;90.33;24.23;;;11.00;99.90;;;;;;5017553;28;20193;-85
2023/04/23 02:57:29;;;;;;;89.53;25.23;;;11.00;99.90;;;;;;5017202;28;20936;-86
2023/04/23 02:59:54;;;;;;;91.37;26.20;;;10.90;99.90;;;;;;5016684;28;20173;-86
2023/04/23 03:02:20;;;;;;;90.60;23.97;;;10.90;99.90;;;;;;5017732;28;20736;-84
2023/04/23 03:04:46;;;;;;;87.23;23.47;;;10.90;99.90;;;;;;5019691;28;20185;-83
2023/04/23 03:07:12;;;;;;;88.07;25.07;;;10.90;99.90;;;;;;5018195;28;20166;-83
2023/04/23 03:09:38;;;;;;;89.78;23.08;;;10.90;99.90;;;;;;5019996;28;20174;-84
2023/04/23 03:12:04;;;;;;;88.85;24.48;;;10.90;99.90;;;;;;5019543;28;20173;-84
2023/04/23 03:14:31;;;;;;;89.93;25.53;;;10.90;99.90;;;;;;5019900;28;20584;-84
2023/04/23 03:16:56;;;;;;;91.45;25.85;;;10.90;99.90;;;;;;5019059;28;20158;-84
2023/04/23 03:19:22;;;;;;;88.07;23.40;;;10.80;99.90;;;;;;5020031;28;20249;-84
2023/04/23 03:21:48;;;;;;;93.60;25.63;;;10.80;99.90;;;;;;5018553;28;20238;-84
2023/04/23 03:24:16;;;;;;;89.57;24.87;;;10.80;99.90;;;;;;5018393;28;20209;-84
2023/04/23 03:26:41;;;;;;;92.03;24.38;;;10.80;99.90;;;;;;5019027;28;20162;-84
2023/04/23 03:29:07;;;;;;;88.47;23.33;;;10.80;99.90;;;;;;5019219;28;20221;-84
2023/04/23 03:31:33;;;;;;;91.13;24.40;;;10.80;99.90;;;;;;5018957;28;20208;-86
2023/04/23 03:34:02;;;;;;;88.60;23.40;;;10.80;99.90;;;;;;5016676;28;20678;-86
2023/04/23 03:36:28;;;;;;;91.18;24.60;;;10.70;99.90;;;;;;5016714;28;20174;-85
2023/04/23 03:38:53;;;;;;;88.45;25.02;;;10.70;99.90;;;;;;5017072;28;20191;-86
2023/04/23 03:41:19;;;;;;;89.80;25.50;;;10.80;99.90;;;;;;5016284;28;20174;-85
2023/04/23 03:43:45;;;;;;;90.23;25.27;;;10.70;99.90;;;;;;5016631;28;20217;-85
2023/04/23 03:46:13;;;;;;;92.57;26.50;;;10.70;99.90;;;;;;5018286;28;20170;-85
2023/04/23 03:48:39;;;;;;;90.43;26.35;;;10.70;99.90;;;;;;5016361;28;20193;-85
2023/04/23 03:51:05;;;;;;;95.43;25.42;;;10.70;99.90;;;;;;5018517;28;20162;-85
2023/04/23 03:53:30;;;;;;;92.10;25.83;;;10.70;99.90;;;;;;5016777;28;20655;-86
2023/04/23 03:55:56;;;;;;;96.07;26.00;;;10.70;99.90;;;;;;5014695;28;20296;-85
2023/04/23 03:58:22;;;;;;;92.47;24.80;;;10.80;99.90;;;;;;5016632;28;20530;-85
2023/04/23 04:00:47;;;;;;;93.37;25.43;;;10.80;99.90;;;;;;5016945;28;20537;-85
2023/04/23 04:03:13;;;;;;;95.57;27.57;;;10.80;99.90;;;;;;5019696;28;20185;-85
2023/04/23 04:05:39;;;;;;;92.03;24.57;;;10.80;99.90;;;;;;5019626;28;20162;-85
2023/04/23 04:08:05;;;;;;;96.00;24.87;;;10.80;99.90;;;;;;5018370;28;20261;-85
2023/04/23 04:10:30;;;;;;;94.43;25.67;;;10.80;99.90;;;;;;5019152;28;20159;-85
2023/04/23 04:12:56;;;;;;;95.87;26.43;;;10.90;99.90;;;;;;5019640;28;20165;-85
2023/04/23 04:15:22;;;;;;;94.67;24.73;;;10.90;99.90;;;;;;5018043;28;20190;-85
2023/04/23 04:17:47;;;;;;;93.53;26.33;;;11.00;99.90;;;;;;5019873;28;20652;-85
2023/04/23 04:20:16;;;;;;;91.03;25.03;;;11.00;99.90;;;;;;5109674;23;20487;-86
2023/04/23 04:22:42;;;;;;;93.78;25.70;;;11.00;99.90;;;;;;5038917;28;20181;-85
2023/04/23 04:25:11;;;;;;;90.70;24.47;;;10.90;99.90;;;;;;5037549;28;20557;-85
2023/04/23 04:27:38;;;;;;;92.88;23.55;;;11.00;99.90;;;;;;5037982;28;20525;-85
2023/04/23 04:30:04;;;;;;;94.57;24.70;;;11.00;99.90;;;;;;5038053;28;20166;-85
2023/04/23 04:32:32;;;;;;;92.07;23.95;;;11.00;99.90;;;;;;5036705;28;20203;-85
2023/04/23 04:34:57;;;;;;;95.70;26.05;;;11.00;99.90;;;;;;5037855;28;20185;-85
2023/04/23 04:37:23;;;;;;;96.40;26.57;;;11.00;99.90;;;;;;5039540;28;20170;-85
2023/04/23 04:39:50;;;;;;;91.97;24.40;;;11.00;99.90;;;;;;5039614;28;20169;-86
2023/04/23 04:42:19;;;;;;;94.65;26.15;;;11.00;99.90;;;;;;5038109;28;20456;-85
2023/04/23 04:44:44;;;;;;;99.53;27.15;;;11.00;99.90;;;;;;5039383;28;20178;-86
2023/04/23 04:47:12;;;;;;;94.00;24.20;;;10.90;99.90;;;;;;5038190;28;20557;-86
2023/04/23 04:49:37;;;;;;;94.10;26.13;;;11.00;99.90;;;;;;5037560;28;20469;-86
2023/04/23 04:52:03;;;;;;;95.30;25.83;;;11.00;99.90;;;;;;5038112;28;20229;-86
2023/04/23 04:54:29;;;;;;;94.07;25.00;;;11.00;99.90;;;;;;5038095;28;20197;-86
2023/04/23 04:56:55;;;;;;;95.97;25.93;;;11.00;99.90;;;;;;5038966;28;20180;-85
2023/04/23 04:59:21;;;;;;;96.05;26.85;;;11.00;99.90;;;;;;5039026;28;20693;-86
2023/04/23 05:01:46;;;;;;;90.70;27.57;;;11.10;99.90;;;;;;5037743;28;20244;-85
2023/04/23 05:04:12;;;;;;;90.57;26.70;;;11.10;99.90;;;;;;5037155;28;20672;-85
2023/04/23 05:06:38;;;;;;;95.23;25.70;;;11.10;99.90;;;;;;5038016;28;20165;-85
2023/04/23 05:09:04;;;;;;;93.47;27.40;;;11.10;99.90;;;;;;5037363;28;20165;-85
2023/04/23 05:11:30;;;;;;;91.70;27.23;;;11.20;99.90;;;;;;5038978;28;20161;-86
2023/04/23 05:13:56;;;;;;;92.22;24.20;;;11.20;99.90;;;;;;5040915;28;20424;-84
2023/04/23 05:16:22;;;;;;;96.60;26.30;;;11.30;99.90;;;;;;5040129;28;20283;-83
2023/04/23 05:18:51;;;;;;;96.95;26.75;;;11.30;99.90;;;;;;5040552;28;20157;-83
2023/04/23 05:21:18;;;;;;;91.13;24.20;;;11.30;99.90;;;;;;5038966;28;20189;-84
2023/04/23 05:23:43;;;;;;;88.15;24.63;;;11.40;99.90;;;;;;5038909;28;20572;-84
2023/04/23 05:26:10;;;;;;;84.60;21.70;;;11.30;99.90;;;;;;5040462;28;20165;-84
2023/04/23 05:28:35;;;;;;;89.25;25.13;;;11.40;99.90;;;;;;5040321;28;20165;-84
2023/04/23 05:31:02;;;;;;;84.77;22.60;;;11.40;99.90;;;;;;5038979;28;20193;-86
2023/04/23 05:33:27;;;;;;;85.88;21.17;;;11.50;99.90;;;;;;5037631;28;20185;-86
2023/04/23 05:35:54;;;;;;;87.23;22.97;;;11.50;99.90;;;;;;5037353;28;20503;-86
2023/04/23 05:38:19;;;;;;;88.85;22.52;;;11.50;99.90;;;;;;5037486;28;20165;-86
2023/04/23 05:40:45;;;;;;;91.67;21.57;;;11.50;99.90;;;;;;5042291;28;20176;-84
2023/04/23 05:43:11;;;;;;;85.90;19.70;;;11.60;99.90;;;;;;5037430;28;20189;-86
2023/04/23 05:45:37;;;;;;;85.77;20.37;;;11.70;99.90;;;;;;5037157;28;20459;-86
2023/04/23 05:48:03;;;;;;;85.67;19.87;;;11.70;99.90;;;;;;5037888;28;20432;-86
2023/04/23 05:50:28;;;;;;;89.80;19.60;;;11.70;99.90;;;;;;5037486;28;20157;-86
2023/04/23 05:52:54;;;;;;;86.70;19.90;;;11.80;99.90;;;;;;5038778;28;20169;-86
2023/04/23 05:55:22;;;;;;;84.90;19.80;;;11.80;99.90;;;;;;5037793;28;20251;-86
2023/04/23 05:57:48;;;;;;;84.75;19.30;;;11.90;99.90;;;;;;5036168;28;20195;-86
2023/04/23 06:00:14;;;;;;;83.00;17.90;;;11.90;99.90;;;;;;5037223;28;20199;-86
2023/04/23 06:02:40;;;;;;;81.47;17.50;;;12.00;99.90;;;;;;5037004;28;20180;-86
2023/04/23 06:05:13;;;;;;;87.28;18.85;;;12.00;99.90;;;;;;5035094;28;20262;-86
2023/04/23 06:07:40;;;;;;;82.10;17.75;;;12.10;99.90;;;;;;5034951;28;20284;-86
2023/04/23 06:10:31;;;;;;;80.55;18.60;;;12.10;99.90;;;;;;5036881;28;20165;-86
2023/04/23 06:12:57;;;;;;;80.30;18.48;;;12.20;99.90;;;;;;5036692;28;20176;-86
2023/04/23 06:15:25;;;;;;;82.77;16.00;;;12.20;99.90;;;;;;5036043;28;20668;-86
2023/04/23 06:17:54;;;;;;;80.72;18.48;;;12.20;99.90;;;;;;5035098;28;20175;-86
2023/04/23 06:20:20;;;;;;;82.38;18.98;;;12.20;99.90;;;;;;5034463;28;20181;-86
2023/04/23 06:22:49;;;;;;;80.20;18.90;;;12.30;99.90;;;;;;5036240;28;20181;-86
2023/04/23 06:25:24;;;;;;;79.45;20.08;;;12.30;99.90;;;;;;5034991;28;20284;-86
2023/04/23 06:27:53;;;;;;;78.85;20.08;;;12.30;99.90;;;;;;5036939;28;20172;-86
2023/04/23 06:30:19;;;;;;;81.13;22.63;;;12.50;99.90;;;;;;5034608;28;20636;-86
2023/04/23 06:32:45;;;;;;;81.00;21.83;;;12.50;99.90;;;;;;5035030;28;20184;-86
2023/04/23 06:35:10;;;;;;;80.82;22.02;;;12.50;99.90;;;;;;5034122;28;20231;-86
2023/04/23 06:37:36;;;;;;;78.47;22.30;;;12.60;99.90;;;;;;5035753;28;20252;-86
2023/04/23 06:40:02;;;;;;;79.30;22.10;;;12.70;99.90;;;;;;5036981;28;20176;-84
2023/04/23 06:42:28;;;;;;;80.17;25.43;;;12.80;99.90;;;;;;5039799;28;20165;-84
2023/04/23 06:44:53;;;;;;;83.77;28.37;;;12.90;99.90;;;;;;5040279;28;20280;-84
2023/04/23 06:47:19;;;;;;;80.23;29.60;;;13.00;99.90;;;;;;5039429;28;20211;-84
2023/04/23 06:49:45;;;;;;;80.80;30.53;;;13.10;99.90;;;;;;5039532;28;20431;-84
2023/04/23 06:52:11;;;;;;;78.70;26.67;;;13.20;99.90;;;;;;5040716;28;20162;-84
2023/04/23 06:54:39;;;;;;;78.80;27.87;;;13.20;99.90;;;;;;5040306;28;20185;-84
2023/04/23 06:57:05;;;;;;;78.03;28.25;;;13.20;99.90;;;;;;5038199;28;20419;-84
2023/04/23 06:59:31;;;;;;;78.73;28.63;;;13.40;99.90;;;;;;5038773;28;20158;-84
2023/04/23 07:01:56;;;;;;;75.00;25.70;;;13.50;99.90;;;;;;5038967;28;20254;-84
2023/04/23 07:04:22;;;;;;;74.17;16.60;;;13.60;99.90;;;;;;5039395;28;20226;-84
2023/04/23 07:06:47;;;;;;;72.80;17.20;;;13.70;99.90;;;;;;5040155;28;20173;-84
2023/04/23 07:09:13;;;;;;;71.67;13.50;;;13.80;99.90;;;;;;5039663;28;20157;-84
2023/04/23 07:11:39;;;;;;;75.37;11.60;;;13.90;99.90;;;;;;5039951;28;20168;-86
2023/04/23 07:14:05;;;;;;;72.87;9.20;;;14.00;99.90;;;;;;5036661;28;20181;-84
2023/04/23 07:16:34;;;;;;;69.47;10.33;;;14.10;99.90;;;;;;5041129;28;20453;-85
2023/04/23 07:19:03;;;;;;;67.80;8.03;;;14.10;99.90;;;;;;5038804;28;20876;-85
2023/04/23 07:22:22;;;;;;;70.07;8.20;;;14.20;99.90;;;;;;5039486;28;20442;-85
2023/04/23 07:24:48;;;;;;;68.80;7.63;;;14.30;99.90;;;;;;5031407;28;20451;-85
2023/04/23 07:27:16;;;;;;;67.90;7.97;;;14.50;99.90;;;;;;5038904;28;20400;-84
2023/04/23 07:29:42;;;;;;;69.20;8.70;;;14.50;99.90;;;;;;5038186;28;20617;-84
2023/04/23 07:32:08;;;;;;;68.57;6.80;;;14.60;99.90;;;;;;5038032;28;20495;-84
2023/04/23 07:34:36;;;;;;;67.00;6.37;;;14.70;99.90;;;;;;5036157;28;20185;-84
2023/04/23 07:37:02;;;;;;;69.17;7.20;;;14.70;99.90;;;;;;5041078;28;20153;-84
2023/04/23 07:39:28;;;;;;;68.63;6.80;;;14.60;99.90;;;;;;5040740;28;20841;-85
2023/04/23 07:41:55;;;;;;;67.37;5.67;;;14.50;99.90;;;;;;5040681;28;20392;-85
2023/04/23 07:44:21;;;;;;;67.97;5.43;;;14.50;99.90;;;;;;5040957;28;20501;-84
2023/04/23 07:46:47;;;;;;;68.57;7.03;;;14.50;99.90;;;;;;5038707;28;20447;-84
2023/04/23 07:49:15;;;;;;;77.13;7.07;;;14.50;99.90;;;;;;5039081;28;20524;-84
2023/04/23 07:51:41;;;;;;;66.90;5.73;;;14.50;99.90;;;;;;5039455;28;20237;-84
2023/04/23 07:54:08;;;;;;;68.30;7.10;;;14.50;99.90;;;;;;5039812;28;20947;-84
2023/04/23 07:56:33;;;;;;;66.17;5.93;;;14.50;99.90;;;;;;5039560;28;20210;-84
2023/04/23 07:58:59;;;;;;;68.70;5.77;;;14.60;99.90;;;;;;5040205;28;20403;-85
2023/04/23 08:01:25;;;;;;;67.53;5.50;;;14.50;99.90;;;;;;5164085;22;20464;-87
2023/04/23 08:03:51;;;;;;;71.20;6.83;;;14.60;99.90;;;;;;5097819;23;20483;-86
2023/04/23 08:06:17;;;;;;;66.70;6.00;;;14.70;99.90;;;;;;5036881;28;20412;-87
2023/04/23 08:08:44;;;;;;;68.17;5.93;;;14.90;99.90;;;;;;5106167;22;20489;-87
2023/04/23 08:11:10;;;;;;;67.13;5.83;;;15.10;99.90;;;;;;5021795;28;20162;-86
2023/04/23 08:13:36;;;;;;;67.20;5.37;;;15.20;99.90;;;;;;5022491;28;20431;-86
2023/04/23 08:16:01;;;;;;;66.90;5.50;;;15.30;99.90;;;;;;5021404;28;20484;-86
2023/04/23 08:18:27;;;;;;;68.57;4.87;;;15.30;99.90;;;;;;5021048;28;20505;-87
2023/04/23 08:20:55;;;;;;;67.63;5.97;;;15.30;99.90;;;;;;5021026;28;20177;-87
2023/04/23 08:23:21;;;;;;;67.20;5.27;;;15.40;99.90;;;;;;5021269;28;20201;-86
2023/04/23 08:25:46;;;;;;;67.90;5.47;;;15.50;99.90;;;;;;5020845;28;20416;-86
2023/04/23 08:28:12;;;;;;;66.20;5.13;;;15.50;99.90;;;;;;5022414;28;20166;-87
2023/04/23 08:30:38;;;;;;;65.63;5.00;;;15.70;99.90;;;;;;5021586;28;20288;-87
2023/04/23 08:33:04;;;;;;;65.73;5.00;;;15.70;99.90;;;;;;5021994;28;20277;-87
2023/04/23 08:35:29;;;;;;;69.07;5.47;;;15.80;99.90;;;;;;5021960;28;20206;-87
2023/04/23 08:37:55;;;;;;;67.50;5.20;;;16.00;99.90;;;;;;5021327;28;20174;-87
2023/04/23 08:40:21;;;;;;;66.50;4.40;;;16.10;99.90;;;;;;5022846;28;20166;-86
2023/04/23 08:43:00;;;;;;;67.00;4.33;;;16.10;99.90;;;;;;5022426;28;20467;-86
2023/04/23 08:45:26;;;;;;;66.53;3.87;;;16.10;90.90;;;;;;5022121;28;20487;-87
2023/04/23 08:47:57;;;;;;;65.27;3.93;;;16.10;79.70;;;;;;5022004;28;20425;-86
2023/04/23 08:50:24;;;;;;;70.53;4.40;;;16.10;67.70;;;;;;5022279;28;20390;-87
2023/04/23 08:52:52;;;;;;;66.17;4.30;;;16.20;73.40;;;;;;5021469;28;20828;-87
2023/04/23 08:55:20;;;;;;;67.77;4.20;;;16.10;42.40;;;;;;5021508;28;20839;-86
2023/04/23 08:57:46;;;;;;;66.27;4.00;;;16.10;49.10;;;;;;5021504;28;20405;-87
2023/04/23 09:00:15;;;;;;;67.87;4.33;;;16.30;57.50;;;;;;5019543;28;20413;-87
2023/04/23 09:02:44;;;;;;;66.87;3.80;;;16.40;33.70;;;;;;5021007;28;20455;-85
2023/04/23 09:05:10;;;;;;;67.00;3.50;;;16.40;44.80;;;;;;5021780;28;20433;-86
2023/04/23 09:07:36;;;;;;;68.37;3.80;;;16.40;47.80;;;;;;5022443;28;20409;-87
2023/04/23 09:10:04;;;;;;;67.40;3.93;;;16.60;34.60;;;;;;5019733;28;20436;-86
2023/04/23 09:12:31;;;;;;;65.40;5.50;;;16.70;43.20;;;;;;5020588;28;20535;-86
2023/04/23 09:14:57;;;;;;;65.40;4.83;;;16.80;21.50;;;;;;5020861;28;20430;-85
2023/04/23 09:17:27;;;;;;;64.47;5.40;;;16.80;15.30;;;;;;5020662;28;20413;-86
2023/04/23 09:19:54;;;;;;;67.50;6.10;;;16.80;13.00;;;;;;5020351;28;20444;-86
2023/04/23 09:22:44;;;;;;;65.30;6.00;;;16.80;13.60;;;;;;5004019;28;20430;-87
2023/04/23 09:25:12;;;;;;;68.43;6.30;;;16.80;18.20;;;;;;5020244;28;20833;-87
2023/04/23 09:27:38;;;;;;;69.60;6.73;;;17.00;21.50;;;;;;5019242;28;20405;-87
2023/04/23 09:30:08;;;;;;;65.07;4.70;;;17.20;19.20;;;;;;5019059;28;20907;-86
2023/04/23 09:32:39;;;;;;;66.50;6.50;;;17.20;2.80;;;;;;5019266;28;20869;-86
2023/04/23 09:35:07;;;;;;;69.03;6.00;;;17.10;6.80;;;;;;5019841;28;20901;-86
2023/04/23 09:37:34;;;;;;;66.20;5.73;;;17.30;12.10;;;;;;5019870;28;20432;-87
2023/04/23 09:40:07;;;;;;;64.90;4.40;;;17.30;3.80;;;;;;5020354;28;20414;-86
2023/04/23 09:42:33;;;;;;;66.60;4.83;;;17.30;6.10;;;;;;5020331;28;20981;-86
2023/04/23 09:45:04;;;;;;;64.23;3.87;;;17.40;1.00;;;;;;5019897;28;20815;-87
2023/04/23 09:47:38;;;;;;;65.00;3.70;;;17.50;1.00;;;;;;5019707;28;20414;-87
2023/04/23 09:50:09;;;;;;;66.57;4.27;;;17.70;2.70;;;;;;5020481;28;20391;-87
2023/04/23 09:52:41;;;;;;;66.80;3.30;;;17.90;1.00;;;;;;5019860;28;20504;-86
2023/04/23 09:55:07;;;;;;;66.57;3.70;;;17.90;1.00;;;;;;5020785;28;20431;-86
2023/04/23 09:57:40;;;;;;;65.20;3.33;;;18.00;1.00;;;;;;5019983;28;20411;-86
2023/04/23 10:00:19;;;;;;;70.30;3.80;;;18.20;1.00;;;;;;5002974;28;20562;-86
2023/04/23 10:02:49;;;;;;;64.80;3.10;;;18.10;1.00;;;;;;5020410;28;20435;-85
2023/04/23 10:05:17;;;;;;;67.90;4.53;;;18.30;1.00;;;;;;5019106;28;20821;-86
2023/04/23 10:07:53;;;;;;;65.67;4.07;;;18.40;1.00;;;;;;5019599;28;20539;-86
2023/04/23 10:10:22;;;;;;;67.13;4.60;;;18.30;1.00;;;;;;5019029;28;20419;-87
2023/04/23 10:12:48;;;;;;;65.73;4.27;;;18.50;1.00;;;;;;5020107;28;20412;-87
2023/04/23 10:15:14;;;;;;;64.40;3.17;;;18.40;1.00;;;;;;5019006;28;20432;-86
2023/04/23 10:17:40;;;;;;;66.47;3.67;;;18.40;1.00;;;;;;5019979;28;20418;-87
2023/04/23 10:20:07;;;;;;;65.73;3.83;;;18.50;1.00;;;;;;5019042;28;20589;-86
2023/04/23 10:22:37;;;;;;;65.83;3.57;;;18.50;1.00;;;;;;5018490;28;20793;-86
2023/04/23 10:25:08;;;;;;;66.40;3.87;;;18.50;1.00;;;;;;5019434;28;20441;-87
2023/04/23 10:27:39;;;;;;;65.03;3.27;;;18.50;1.00;;;;;;5018886;28;20397;-87
2023/04/23 10:30:09;;;;;;;67.57;4.20;;;18.60;1.00;;;;;;5018928;28;20411;-86
2023/04/23 10:32:35;;;;;;;65.30;3.30;;;18.30;1.00;;;;;;5020156;28;20397;-86
2023/04/23 10:35:01;;;;;;;64.40;3.67;;;18.20;1.00;;;;;;5018641;28;20432;-86
2023/04/23 10:37:28;;;;;;;66.63;3.80;;;18.10;1.00;;;;;;5018031;28;20447;-86
2023/04/23 10:39:55;;;;;;;67.43;3.80;;;18.20;1.00;;;;;;5019070;28;20420;-87
2023/04/23 10:42:25;;;;;;;66.67;4.30;;;18.40;1.00;;;;;;5018459;28;20405;-86
2023/04/23 10:44:56;;;;;;;66.60;4.33;;;18.60;1.00;;;;;;5019943;28;20428;-86
2023/04/23 10:47:22;;;;;;;67.53;4.37;;;18.50;1.00;;;;;;5019073;28;20408;-86
2023/04/23 10:49:48;;;;;;;66.70;4.30;;;18.50;1.00;;;;;;5018804;28;20420;-86
2023/04/23 10:52:16;;;;;;;66.43;4.03;;;18.50;1.00;;;;;;5019703;28;20498;-86
2023/04/23 10:54:47;;;;;;;67.03;4.57;;;18.40;1.00;;;;;;5019190;28;20518;-86
2023/04/23 10:57:13;;;;;;;69.07;4.40;;;18.40;1.00;;;;;;5018580;28;20420;-86
2023/04/23 10:59:50;;;;;;;65.87;4.40;;;18.30;1.00;;;;;;5018042;28;20928;-87
2023/04/23 11:02:16;;;;;;;64.77;4.37;;;18.20;1.00;;;;;;5018004;28;20435;-86
2023/04/23 11:04:52;;;;;;;65.10;3.77;;;18.20;1.00;;;;;;5018477;28;20436;-85
2023/04/23 11:07:18;;;;;;;65.97;4.40;;;18.40;1.00;;;;;;5019482;28;20895;-85
2023/04/23 11:09:48;;;;;;;66.07;4.80;;;18.80;1.00;;;;;;5018566;28;20487;-85
2023/04/23 11:12:20;;;;;;;66.13;4.97;;;19.10;1.00;;;;;;5024246;28;20424;-85
2023/04/23 11:14:49;;;;;;;66.60;6.07;;;19.40;1.00;;;;;;5023705;28;20428;-86
2023/04/23 11:17:17;;;;;;;65.03;5.03;;;19.30;1.00;;;;;;5024763;28;20400;-86
2023/04/23 11:20:08;;;;;;;65.70;6.20;;;19.30;1.00;;;;;;5025801;28;20856;-85
2023/04/23 11:22:36;;;;;;;70.73;6.67;;;19.10;1.00;;;;;;5024806;28;20761;-86
2023/04/23 11:25:04;;;;;;;67.30;5.70;;;19.00;1.00;;;;;;5023598;28;20444;-86
2023/04/23 11:27:31;;;;;;;66.80;6.00;;;19.10;1.00;;;;;;5023650;28;20420;-86
2023/04/23 11:29:59;;;;;;;67.37;6.30;;;19.20;1.00;;;;;;5024924;28;20904;-86
2023/04/23 11:32:27;;;;;;;67.60;6.60;;;19.10;1.00;;;;;;5025243;28;20455;-86
2023/04/23 11:34:54;;;;;;;67.77;6.23;;;19.20;1.00;;;;;;5023804;28;20962;-86
2023/04/23 11:37:19;;;;;;;67.27;6.77;;;19.20;1.00;;;;;;5024634;28;20404;-86
2023/04/23 11:39:50;;;;;;;68.73;6.77;;;19.20;1.00;;;;;;5024152;28;20412;-87
2023/04/23 11:42:18;;;;;;;69.30;6.97;;;19.30;1.00;;;;;;5022958;28;20177;-86
2023/04/23 11:44:46;;;;;;;66.50;7.07;;;19.40;1.00;;;;;;5023561;28;20428;-86
2023/04/23 11:47:13;;;;;;;68.17;6.67;;;19.30;1.00;;;;;;5024344;28;20393;-85
2023/04/23 11:49:41;;;;;;;68.10;7.20;;;19.30;1.00;;;;;;5023025;28;20924;-85
2023/04/23 11:52:10;;;;;;;68.00;6.90;;;19.50;1.00;;;;;;5023032;28;20404;-85
2023/04/23 11:54:39;;;;;;;68.40;7.13;;;19.40;1.00;;;;;;5024396;28;20594;-86
2023/04/23 11:57:05;;;;;;;67.60;5.73;;;19.60;1.00;;;;;;5022860;28;20420;-85
2023/04/23 11:59:31;;;;;;;70.43;7.70;;;20.10;1.00;;;;;;5023310;28;20413;-86
2023/04/23 12:01:59;;;;;;;70.13;8.63;;;20.20;1.00;;;;;;5025149;28;20412;-86
2023/04/23 12:04:27;;;;;;;68.50;6.67;;;20.80;1.00;;;;;;5025506;28;20190;-84
2023/04/23 12:06:57;;;;;;;66.67;5.13;;;20.90;1.00;;;;;;5027052;28;20397;-85
2023/04/23 12:09:36;;;;;;;66.50;4.03;;;20.80;1.00;;;;;;5025891;28;20436;-86
2023/04/23 12:12:02;;;;;;;68.03;3.47;;;20.90;1.00;;;;;;5027310;28;20381;-86
2023/04/23 12:14:29;;;;;;;65.77;2.77;;;21.10;1.00;;;;;;5027184;28;20483;-87
2023/04/23 12:16:56;;;;;;;67.17;3.50;;;21.00;1.00;;;;;;5028273;28;20234;-87
2023/04/23 12:19:29;;;;;;;68.70;3.53;;;20.60;1.00;;;;;;5026097;28;20440;-87
2023/04/23 12:21:57;;;;;;;65.83;2.93;;;20.50;1.00;;;;;;5022451;28;20416;-86
2023/04/23 12:24:27;;;;;;;65.93;3.00;;;20.60;1.00;;;;;;5024494;28;20481;-87
2023/04/23 12:26:59;;;;;;;67.50;3.30;;;20.50;1.00;;;;;;5021816;28;20445;-86
2023/04/23 12:29:25;;;;;;;69.97;3.17;;;20.20;1.00;;;;;;5021589;28;20778;-86
2023/04/23 12:31:52;;;;;;;67.27;3.80;;;19.80;1.00;;;;;;5023980;28;20462;-86
2023/04/23 12:34:20;;;;;;;69.77;3.60;;;20.00;1.00;;;;;;5022437;28;20524;-86